sensor_id;sensor_type;location;lat;lon;timestamp;P1;durP1;ratioP1;P2;durP2;ratioP2
53389;SDS011;39288;42.970;1.524;2023-07-20T00:00:26;7.90;;;4.90;;
53389;SDS011;39288;42.970;1.524;2023-07-20T00:01:27;6.23;;;4.20;;
53389;SDS011;39288;42.970;1.524;2023-07-20T00:02:27;7.77;;;4.97;;
53389;SDS011;39288;42.970;1.524;2023-07-20T00:03:28;10.67;;;5.27;;
53389;SDS011;39288;42.970;1.524;2023-07-20T00:04:28;8.23;;;5.10;;
53389;SDS011;39288;42.970;1.524;2023-07-20T00:05:29;9.23;;;5.33;;
53389;SDS011;39288;42.970;1.524;2023-07-20T00:06:29;8.13;;;5.13;;
53389;SDS011;39288;42.970;1.524;2023-07-20T00:07:30;9.43;;;4.60;;
53389;SDS011;39288;42.970;1.524;2023-07-20T00:08:30;11.43;;;4.87;;
53389;SDS011;39288;42.970;1.524;2023-07-20T00:09:31;7.40;;;5.00;;
53389;SDS011;39288;42.970;1.524;2023-07-20T00:10:31;7.57;;;4.93;;
53389;SDS011;39288;42.970;1.524;2023-07-20T00:11:31;5.80;;;4.47;;
53389;SDS011;39288;42.970;1.524;2023-07-20T00:12:36;7.82;;;4.53;;
53389;SDS011;39288;42.970;1.524;2023-07-20T00:13:36;9.33;;;4.73;;
53389;SDS011;39288;42.970;1.524;2023-07-20T00:14:37;5.83;;;4.50;;
53389;SDS011;39288;42.970;1.524;2023-07-20T00:15:37;6.47;;;4.60;;
53389;SDS011;39288;42.970;1.524;2023-07-20T00:16:38;7.87;;;4.53;;
53389;SDS011;39288;42.970;1.524;2023-07-20T00:17:38;8.57;;;4.73;;
53389;SDS011;39288;42.970;1.524;2023-07-20T00:18:40;6.82;;;3.90;;
53389;SDS011;39288;42.970;1.524;2023-07-20T00:19:40;6.90;;;4.73;;
53389;SDS011;39288;42.970;1.524;2023-07-20T00:20:41;7.60;;;5.00;;
53389;SDS011;39288;42.970;1.524;2023-07-20T00:21:41;5.63;;;4.57;;
53389;SDS011;39288;42.970;1.524;2023-07-20T00:22:42;7.22;;;5.00;;
53389;SDS011;39288;42.970;1.524;2023-07-20T00:23:43;11.93;;;4.80;;
53389;SDS011;39288;42.970;1.524;2023-07-20T00:24:43;6.67;;;4.60;;
53389;SDS011;39288;42.970;1.524;2023-07-20T00:25:44;8.87;;;4.77;;
53389;SDS011;39288;42.970;1.524;2023-07-20T00:26:44;8.47;;;4.60;;
53389;SDS011;39288;42.970;1.524;2023-07-20T00:27:45;8.13;;;5.10;;
53389;SDS011;39288;42.970;1.524;2023-07-20T00:28:45;7.03;;;4.73;;
53389;SDS011;39288;42.970;1.524;2023-07-20T00:29:45;6.50;;;4.50;;
53389;SDS011;39288;42.970;1.524;2023-07-20T00:30:46;8.07;;;5.20;;
53389;SDS011;39288;42.970;1.524;2023-07-20T00:31:46;6.27;;;4.87;;
53389;SDS011;39288;42.970;1.524;2023-07-20T00:32:47;7.37;;;4.80;;
53389;SDS011;39288;42.970;1.524;2023-07-20T00:33:48;7.23;;;4.60;;
53389;SDS011;39288;42.970;1.524;2023-07-20T00:34:48;6.70;;;4.90;;
53389;SDS011;39288;42.970;1.524;2023-07-20T00:35:49;6.43;;;4.27;;
53389;SDS011;39288;42.970;1.524;2023-07-20T00:36:49;7.40;;;3.97;;
53389;SDS011;39288;42.970;1.524;2023-07-20T00:37:50;7.93;;;4.77;;
53389;SDS011;39288;42.970;1.524;2023-07-20T00:38:50;9.63;;;4.83;;
53389;SDS011;39288;42.970;1.524;2023-07-20T00:39:51;9.23;;;4.63;;
53389;SDS011;39288;42.970;1.524;2023-07-20T00:40:52;5.20;;;4.00;;
53389;SDS011;39288;42.970;1.524;2023-07-20T00:41:55;6.55;;;4.47;;
53389;SDS011;39288;42.970;1.524;2023-07-20T00:42:56;5.27;;;4.10;;
53389;SDS011;39288;42.970;1.524;2023-07-20T00:43:56;7.73;;;4.87;;
53389;SDS011;39288;42.970;1.524;2023-07-20T00:44:57;8.83;;;5.23;;
53389;SDS011;39288;42.970;1.524;2023-07-20T00:45:58;7.30;;;4.23;;
53389;SDS011;39288;42.970;1.524;2023-07-20T00:46:59;7.28;;;4.72;;
53389;SDS011;39288;42.970;1.524;2023-07-20T00:48:00;9.07;;;4.00;;
53389;SDS011;39288;42.970;1.524;2023-07-20T00:49:01;6.03;;;4.10;;
53389;SDS011;39288;42.970;1.524;2023-07-20T00:50:02;7.87;;;4.30;;
53389;SDS011;39288;42.970;1.524;2023-07-20T00:51:03;6.07;;;4.22;;
53389;SDS011;39288;42.970;1.524;2023-07-20T00:52:04;6.40;;;4.33;;
53389;SDS011;39288;42.970;1.524;2023-07-20T00:53:07;5.43;;;4.28;;
53389;SDS011;39288;42.970;1.524;2023-07-20T00:54:07;7.47;;;4.67;;
53389;SDS011;39288;42.970;1.524;2023-07-20T00:55:08;9.10;;;4.03;;
53389;SDS011;39288;42.970;1.524;2023-07-20T00:56:09;10.07;;;4.70;;
53389;SDS011;39288;42.970;1.524;2023-07-20T00:57:09;10.80;;;4.30;;
53389;SDS011;39288;42.970;1.524;2023-07-20T00:58:16;5.75;;;4.30;;
53389;SDS011;39288;42.970;1.524;2023-07-20T00:59:16;5.77;;;4.37;;
53389;SDS011;39288;42.970;1.524;2023-07-20T01:00:18;5.97;;;4.20;;
53389;SDS011;39288;42.970;1.524;2023-07-20T01:01:18;8.50;;;4.77;;
53389;SDS011;39288;42.970;1.524;2023-07-20T01:02:20;8.20;;;5.07;;
53389;SDS011;39288;42.970;1.524;2023-07-20T01:03:20;7.97;;;4.47;;
53389;SDS011;39288;42.970;1.524;2023-07-20T01:04:21;6.43;;;4.50;;
53389;SDS011;39288;42.970;1.524;2023-07-20T01:05:23;6.57;;;4.03;;
53389;SDS011;39288;42.970;1.524;2023-07-20T01:07:38;9.15;;;4.63;;
53389;SDS011;39288;42.970;1.524;2023-07-20T01:08:43;6.63;;;4.38;;
53389;SDS011;39288;42.970;1.524;2023-07-20T01:10:06;6.68;;;4.25;;
53389;SDS011;39288;42.970;1.524;2023-07-20T01:11:30;8.63;;;4.78;;
53389;SDS011;39288;42.970;1.524;2023-07-20T01:12:41;9.45;;;4.60;;
53389;SDS011;39288;42.970;1.524;2023-07-20T01:13:43;9.57;;;5.38;;
53389;SDS011;39288;42.970;1.524;2023-07-20T01:14:44;9.02;;;5.22;;
53389;SDS011;39288;42.970;1.524;2023-07-20T01:15:57;5.50;;;4.05;;
53389;SDS011;39288;42.970;1.524;2023-07-20T01:17:01;9.32;;;4.00;;
53389;SDS011;39288;42.970;1.524;2023-07-20T01:18:03;9.05;;;4.00;;
53389;SDS011;39288;42.970;1.524;2023-07-20T01:19:04;5.53;;;4.10;;
53389;SDS011;39288;42.970;1.524;2023-07-20T01:20:08;8.83;;;3.70;;
53389;SDS011;39288;42.970;1.524;2023-07-20T01:21:13;5.20;;;4.03;;
53389;SDS011;39288;42.970;1.524;2023-07-20T01:24:04;6.95;;;4.20;;
53389;SDS011;39288;42.970;1.524;2023-07-20T01:26:20;6.53;;;3.45;;
53389;SDS011;39288;42.970;1.524;2023-07-20T01:28:02;5.35;;;3.15;;
53389;SDS011;39288;42.970;1.524;2023-07-20T01:31:40;7.45;;;3.90;;
53389;SDS011;39288;42.970;1.524;2023-07-20T01:33:42;6.63;;;3.97;;
53389;SDS011;39288;42.970;1.524;2023-07-20T01:34:44;5.35;;;4.03;;
53389;SDS011;39288;42.970;1.524;2023-07-20T01:35:44;15.63;;;4.83;;
53389;SDS011;39288;42.970;1.524;2023-07-20T01:36:48;7.35;;;4.70;;
53389;SDS011;39288;42.970;1.524;2023-07-20T01:37:49;6.85;;;4.20;;
53389;SDS011;39288;42.970;1.524;2023-07-20T01:38:51;8.43;;;5.15;;
53389;SDS011;39288;42.970;1.524;2023-07-20T01:39:52;8.25;;;4.72;;
53389;SDS011;39288;42.970;1.524;2023-07-20T01:40:55;7.43;;;4.90;;
53389;SDS011;39288;42.970;1.524;2023-07-20T01:41:56;7.83;;;4.67;;
53389;SDS011;39288;42.970;1.524;2023-07-20T01:42:57;8.20;;;5.15;;
53389;SDS011;39288;42.970;1.524;2023-07-20T01:43:58;8.87;;;4.93;;
53389;SDS011;39288;42.970;1.524;2023-07-20T01:44:59;8.27;;;4.78;;
53389;SDS011;39288;42.970;1.524;2023-07-20T01:46:00;10.20;;;4.63;;
53389;SDS011;39288;42.970;1.524;2023-07-20T01:47:00;7.30;;;4.67;;
53389;SDS011;39288;42.970;1.524;2023-07-20T01:48:00;15.63;;;4.70;;
53389;SDS011;39288;42.970;1.524;2023-07-20T01:49:01;6.63;;;4.33;;
53389;SDS011;39288;42.970;1.524;2023-07-20T01:50:01;9.97;;;4.83;;
53389;SDS011;39288;42.970;1.524;2023-07-20T01:51:02;10.43;;;4.87;;
53389;SDS011;39288;42.970;1.524;2023-07-20T01:52:02;8.97;;;5.17;;
53389;SDS011;39288;42.970;1.524;2023-07-20T01:53:03;8.60;;;4.83;;
53389;SDS011;39288;42.970;1.524;2023-07-20T01:54:03;8.53;;;4.87;;
53389;SDS011;39288;42.970;1.524;2023-07-20T01:55:04;8.73;;;4.70;;
53389;SDS011;39288;42.970;1.524;2023-07-20T01:56:05;8.43;;;4.55;;
53389;SDS011;39288;42.970;1.524;2023-07-20T01:57:05;7.27;;;4.80;;
53389;SDS011;39288;42.970;1.524;2023-07-20T01:58:06;9.63;;;5.00;;
53389;SDS011;39288;42.970;1.524;2023-07-20T01:59:06;9.67;;;4.63;;
53389;SDS011;39288;42.970;1.524;2023-07-20T02:00:07;8.63;;;5.07;;
53389;SDS011;39288;42.970;1.524;2023-07-20T02:01:09;9.52;;;4.90;;
53389;SDS011;39288;42.970;1.524;2023-07-20T02:02:10;7.70;;;4.63;;
53389;SDS011;39288;42.970;1.524;2023-07-20T02:03:10;8.50;;;4.47;;
53389;SDS011;39288;42.970;1.524;2023-07-20T02:04:12;7.72;;;5.20;;
53389;SDS011;39288;42.970;1.524;2023-07-20T02:05:12;8.67;;;4.83;;
53389;SDS011;39288;42.970;1.524;2023-07-20T02:06:13;11.40;;;5.10;;
53389;SDS011;39288;42.970;1.524;2023-07-20T02:07:13;7.83;;;4.67;;
53389;SDS011;39288;42.970;1.524;2023-07-20T02:08:13;6.47;;;3.90;;
53389;SDS011;39288;42.970;1.524;2023-07-20T02:09:14;7.43;;;5.07;;
53389;SDS011;39288;42.970;1.524;2023-07-20T02:10:14;6.70;;;4.73;;
53389;SDS011;39288;42.970;1.524;2023-07-20T02:11:15;9.57;;;4.97;;
53389;SDS011;39288;42.970;1.524;2023-07-20T02:12:15;7.73;;;5.03;;
53389;SDS011;39288;42.970;1.524;2023-07-20T02:13:16;10.10;;;4.43;;
53389;SDS011;39288;42.970;1.524;2023-07-20T02:14:16;8.00;;;4.87;;
53389;SDS011;39288;42.970;1.524;2023-07-20T02:15:17;8.10;;;5.00;;
53389;SDS011;39288;42.970;1.524;2023-07-20T02:16:18;7.97;;;4.50;;
53389;SDS011;39288;42.970;1.524;2023-07-20T02:17:19;6.37;;;4.17;;
53389;SDS011;39288;42.970;1.524;2023-07-20T02:18:19;9.27;;;5.47;;
53389;SDS011;39288;42.970;1.524;2023-07-20T02:19:20;8.90;;;4.63;;
53389;SDS011;39288;42.970;1.524;2023-07-20T02:20:21;9.10;;;4.63;;
53389;SDS011;39288;42.970;1.524;2023-07-20T02:21:21;7.30;;;4.47;;
53389;SDS011;39288;42.970;1.524;2023-07-20T02:22:22;6.27;;;4.23;;
53389;SDS011;39288;42.970;1.524;2023-07-20T02:23:22;5.43;;;4.17;;
53389;SDS011;39288;42.970;1.524;2023-07-20T02:24:22;9.43;;;5.13;;
53389;SDS011;39288;42.970;1.524;2023-07-20T02:25:23;7.20;;;4.37;;
53389;SDS011;39288;42.970;1.524;2023-07-20T02:26:23;7.10;;;4.17;;
53389;SDS011;39288;42.970;1.524;2023-07-20T02:27:24;6.70;;;4.23;;
53389;SDS011;39288;42.970;1.524;2023-07-20T02:28:24;7.00;;;4.57;;
53389;SDS011;39288;42.970;1.524;2023-07-20T02:29:25;8.73;;;4.90;;
53389;SDS011;39288;42.970;1.524;2023-07-20T02:30:25;6.43;;;4.17;;
53389;SDS011;39288;42.970;1.524;2023-07-20T02:32:28;7.90;;;4.40;;
53389;SDS011;39288;42.970;1.524;2023-07-20T02:33:28;7.28;;;4.05;;
53389;SDS011;39288;42.970;1.524;2023-07-20T02:34:29;6.10;;;4.00;;
53389;SDS011;39288;42.970;1.524;2023-07-20T02:35:29;8.97;;;4.60;;
53389;SDS011;39288;42.970;1.524;2023-07-20T02:36:30;6.60;;;4.37;;
53389;SDS011;39288;42.970;1.524;2023-07-20T02:37:30;7.00;;;4.40;;
53389;SDS011;39288;42.970;1.524;2023-07-20T02:38:30;9.03;;;4.67;;
53389;SDS011;39288;42.970;1.524;2023-07-20T02:39:31;6.73;;;4.33;;
53389;SDS011;39288;42.970;1.524;2023-07-20T02:40:31;6.23;;;4.10;;
53389;SDS011;39288;42.970;1.524;2023-07-20T02:41:32;8.13;;;4.60;;
53389;SDS011;39288;42.970;1.524;2023-07-20T02:42:33;7.85;;;4.50;;
53389;SDS011;39288;42.970;1.524;2023-07-20T02:43:33;9.83;;;4.53;;
53389;SDS011;39288;42.970;1.524;2023-07-20T02:44:34;8.77;;;4.97;;
53389;SDS011;39288;42.970;1.524;2023-07-20T02:45:35;6.90;;;4.10;;
53389;SDS011;39288;42.970;1.524;2023-07-20T02:46:35;8.43;;;4.70;;
53389;SDS011;39288;42.970;1.524;2023-07-20T02:47:36;7.97;;;4.90;;
53389;SDS011;39288;42.970;1.524;2023-07-20T02:48:36;9.13;;;4.57;;
53389;SDS011;39288;42.970;1.524;2023-07-20T02:49:36;5.47;;;4.53;;
53389;SDS011;39288;42.970;1.524;2023-07-20T02:50:37;6.87;;;4.83;;
53389;SDS011;39288;42.970;1.524;2023-07-20T02:51:37;20.20;;;4.67;;
53389;SDS011;39288;42.970;1.524;2023-07-20T02:52:38;6.90;;;4.40;;
53389;SDS011;39288;42.970;1.524;2023-07-20T02:53:38;7.87;;;4.37;;
53389;SDS011;39288;42.970;1.524;2023-07-20T02:54:39;7.67;;;4.47;;
53389;SDS011;39288;42.970;1.524;2023-07-20T02:55:39;6.47;;;4.20;;
53389;SDS011;39288;42.970;1.524;2023-07-20T02:56:40;6.40;;;4.20;;
53389;SDS011;39288;42.970;1.524;2023-07-20T02:57:40;7.83;;;5.00;;
53389;SDS011;39288;42.970;1.524;2023-07-20T02:58:41;7.47;;;3.83;;
53389;SDS011;39288;42.970;1.524;2023-07-20T02:59:45;8.95;;;4.50;;
53389;SDS011;39288;42.970;1.524;2023-07-20T03:00:46;7.13;;;4.87;;
53389;SDS011;39288;42.970;1.524;2023-07-20T03:01:47;7.27;;;4.67;;
53389;SDS011;39288;42.970;1.524;2023-07-20T03:02:47;6.27;;;4.53;;
53389;SDS011;39288;42.970;1.524;2023-07-20T03:03:49;13.80;;;5.28;;
53389;SDS011;39288;42.970;1.524;2023-07-20T03:04:49;8.87;;;4.67;;
53389;SDS011;39288;42.970;1.524;2023-07-20T03:05:50;8.87;;;5.13;;
53389;SDS011;39288;42.970;1.524;2023-07-20T03:06:54;6.78;;;5.40;;
53389;SDS011;39288;42.970;1.524;2023-07-20T03:07:55;6.93;;;4.70;;
53389;SDS011;39288;42.970;1.524;2023-07-20T03:08:56;10.52;;;4.70;;
53389;SDS011;39288;42.970;1.524;2023-07-20T03:09:56;6.73;;;4.47;;
53389;SDS011;39288;42.970;1.524;2023-07-20T03:10:57;9.67;;;4.90;;
53389;SDS011;39288;42.970;1.524;2023-07-20T03:11:57;7.77;;;5.10;;
53389;SDS011;39288;42.970;1.524;2023-07-20T03:12:58;10.43;;;5.63;;
53389;SDS011;39288;42.970;1.524;2023-07-20T03:13:58;7.57;;;5.37;;
53389;SDS011;39288;42.970;1.524;2023-07-20T03:14:59;8.60;;;5.07;;
53389;SDS011;39288;42.970;1.524;2023-07-20T03:15:59;7.97;;;4.87;;
53389;SDS011;39288;42.970;1.524;2023-07-20T03:17:00;8.33;;;5.43;;
53389;SDS011;39288;42.970;1.524;2023-07-20T03:18:00;9.10;;;5.17;;
53389;SDS011;39288;42.970;1.524;2023-07-20T03:19:01;7.63;;;5.20;;
53389;SDS011;39288;42.970;1.524;2023-07-20T03:20:03;8.70;;;5.28;;
53389;SDS011;39288;42.970;1.524;2023-07-20T03:21:09;12.02;;;5.70;;
53389;SDS011;39288;42.970;1.524;2023-07-20T03:22:11;9.32;;;5.95;;
53389;SDS011;39288;42.970;1.524;2023-07-20T03:23:12;11.30;;;6.53;;
53389;SDS011;39288;42.970;1.524;2023-07-20T03:24:12;10.13;;;6.27;;
53389;SDS011;39288;42.970;1.524;2023-07-20T03:25:12;11.03;;;6.57;;
53389;SDS011;39288;42.970;1.524;2023-07-20T03:26:13;12.10;;;6.13;;
53389;SDS011;39288;42.970;1.524;2023-07-20T03:27:13;11.87;;;6.47;;
53389;SDS011;39288;42.970;1.524;2023-07-20T03:28:14;10.97;;;6.50;;
53389;SDS011;39288;42.970;1.524;2023-07-20T03:29:15;11.25;;;6.47;;
53389;SDS011;39288;42.970;1.524;2023-07-20T03:30:16;11.30;;;6.83;;
53389;SDS011;39288;42.970;1.524;2023-07-20T03:31:17;9.00;;;6.17;;
53389;SDS011;39288;42.970;1.524;2023-07-20T03:32:17;9.50;;;5.97;;
53389;SDS011;39288;42.970;1.524;2023-07-20T03:33:18;8.13;;;5.80;;
53389;SDS011;39288;42.970;1.524;2023-07-20T03:34:18;12.73;;;6.90;;
53389;SDS011;39288;42.970;1.524;2023-07-20T03:35:18;9.83;;;6.13;;
53389;SDS011;39288;42.970;1.524;2023-07-20T03:36:19;15.77;;;6.27;;
53389;SDS011;39288;42.970;1.524;2023-07-20T03:37:20;10.35;;;6.35;;
53389;SDS011;39288;42.970;1.524;2023-07-20T03:38:21;10.60;;;6.28;;
53389;SDS011;39288;42.970;1.524;2023-07-20T03:39:23;8.50;;;5.40;;
53389;SDS011;39288;42.970;1.524;2023-07-20T03:40:23;5.60;;;4.60;;
53389;SDS011;39288;42.970;1.524;2023-07-20T03:41:24;8.07;;;5.23;;
53389;SDS011;39288;42.970;1.524;2023-07-20T03:42:24;7.70;;;4.93;;
53389;SDS011;39288;42.970;1.524;2023-07-20T03:43:25;8.37;;;4.90;;
53389;SDS011;39288;42.970;1.524;2023-07-20T03:44:27;9.93;;;5.13;;
53389;SDS011;39288;42.970;1.524;2023-07-20T03:45:27;4.97;;;3.53;;
53389;SDS011;39288;42.970;1.524;2023-07-20T03:46:28;6.77;;;3.93;;
53389;SDS011;39288;42.970;1.524;2023-07-20T03:47:28;5.33;;;3.73;;
53389;SDS011;39288;42.970;1.524;2023-07-20T03:48:29;6.83;;;3.70;;
53389;SDS011;39288;42.970;1.524;2023-07-20T03:49:29;7.20;;;3.67;;
53389;SDS011;39288;42.970;1.524;2023-07-20T03:50:29;7.50;;;3.30;;
53389;SDS011;39288;42.970;1.524;2023-07-20T03:51:30;11.27;;;4.40;;
53389;SDS011;39288;42.970;1.524;2023-07-20T03:52:30;5.60;;;3.70;;
53389;SDS011;39288;42.970;1.524;2023-07-20T03:53:31;6.93;;;3.77;;
53389;SDS011;39288;42.970;1.524;2023-07-20T03:54:32;5.27;;;4.13;;
53389;SDS011;39288;42.970;1.524;2023-07-20T03:55:32;7.17;;;3.90;;
53389;SDS011;39288;42.970;1.524;2023-07-20T03:56:33;7.93;;;3.67;;
53389;SDS011;39288;42.970;1.524;2023-07-20T03:57:35;6.43;;;3.60;;
53389;SDS011;39288;42.970;1.524;2023-07-20T03:58:35;9.30;;;3.83;;
53389;SDS011;39288;42.970;1.524;2023-07-20T03:59:37;9.85;;;3.97;;
53389;SDS011;39288;42.970;1.524;2023-07-20T04:00:38;7.50;;;3.58;;
53389;SDS011;39288;42.970;1.524;2023-07-20T04:01:38;7.03;;;3.43;;
53389;SDS011;39288;42.970;1.524;2023-07-20T04:02:40;6.50;;;3.75;;
53389;SDS011;39288;42.970;1.524;2023-07-20T04:03:40;8.47;;;4.67;;
53389;SDS011;39288;42.970;1.524;2023-07-20T04:04:41;8.47;;;3.77;;
53389;SDS011;39288;42.970;1.524;2023-07-20T04:05:42;5.80;;;3.90;;
53389;SDS011;39288;42.970;1.524;2023-07-20T04:06:43;7.63;;;4.63;;
53389;SDS011;39288;42.970;1.524;2023-07-20T04:07:44;7.53;;;4.50;;
53389;SDS011;39288;42.970;1.524;2023-07-20T04:08:44;10.77;;;4.90;;
53389;SDS011;39288;42.970;1.524;2023-07-20T04:09:47;7.63;;;4.05;;
53389;SDS011;39288;42.970;1.524;2023-07-20T04:10:47;7.83;;;4.20;;
53389;SDS011;39288;42.970;1.524;2023-07-20T04:11:48;9.73;;;4.00;;
53389;SDS011;39288;42.970;1.524;2023-07-20T04:12:48;5.90;;;3.67;;
53389;SDS011;39288;42.970;1.524;2023-07-20T04:13:49;5.17;;;3.67;;
53389;SDS011;39288;42.970;1.524;2023-07-20T04:14:49;11.13;;;4.57;;
53389;SDS011;39288;42.970;1.524;2023-07-20T04:15:50;6.27;;;3.80;;
53389;SDS011;39288;42.970;1.524;2023-07-20T04:16:50;7.00;;;3.77;;
53389;SDS011;39288;42.970;1.524;2023-07-20T04:17:51;9.10;;;4.05;;
53389;SDS011;39288;42.970;1.524;2023-07-20T04:18:51;8.43;;;4.00;;
53389;SDS011;39288;42.970;1.524;2023-07-20T04:19:52;9.87;;;4.83;;
53389;SDS011;39288;42.970;1.524;2023-07-20T04:20:52;8.63;;;4.60;;
53389;SDS011;39288;42.970;1.524;2023-07-20T04:21:53;7.43;;;4.50;;
53389;SDS011;39288;42.970;1.524;2023-07-20T04:22:53;10.67;;;4.67;;
53389;SDS011;39288;42.970;1.524;2023-07-20T04:23:54;8.57;;;5.00;;
53389;SDS011;39288;42.970;1.524;2023-07-20T04:24:54;9.10;;;4.77;;
53389;SDS011;39288;42.970;1.524;2023-07-20T04:25:55;9.33;;;4.20;;
53389;SDS011;39288;42.970;1.524;2023-07-20T04:26:55;6.63;;;4.33;;
53389;SDS011;39288;42.970;1.524;2023-07-20T04:27:56;7.30;;;4.93;;
53389;SDS011;39288;42.970;1.524;2023-07-20T04:28:56;9.53;;;4.67;;
53389;SDS011;39288;42.970;1.524;2023-07-20T04:29:59;7.47;;;4.70;;
53389;SDS011;39288;42.970;1.524;2023-07-20T04:31:09;6.00;;;4.83;;
53389;SDS011;39288;42.970;1.524;2023-07-20T04:32:11;7.38;;;5.03;;
53389;SDS011;39288;42.970;1.524;2023-07-20T04:33:11;8.90;;;4.93;;
53389;SDS011;39288;42.970;1.524;2023-07-20T04:34:12;9.67;;;5.00;;
53389;SDS011;39288;42.970;1.524;2023-07-20T04:35:17;8.47;;;4.47;;
53389;SDS011;39288;42.970;1.524;2023-07-20T04:36:18;7.65;;;4.90;;
53389;SDS011;39288;42.970;1.524;2023-07-20T04:37:19;7.30;;;4.33;;
53389;SDS011;39288;42.970;1.524;2023-07-20T04:38:20;6.67;;;4.40;;
53389;SDS011;39288;42.970;1.524;2023-07-20T04:39:21;7.45;;;4.60;;
53389;SDS011;39288;42.970;1.524;2023-07-20T04:40:21;8.17;;;4.20;;
53389;SDS011;39288;42.970;1.524;2023-07-20T04:41:22;6.10;;;4.20;;
53389;SDS011;39288;42.970;1.524;2023-07-20T04:42:22;7.30;;;4.70;;
53389;SDS011;39288;42.970;1.524;2023-07-20T04:43:23;10.33;;;4.83;;
53389;SDS011;39288;42.970;1.524;2023-07-20T04:44:23;7.07;;;4.43;;
53389;SDS011;39288;42.970;1.524;2023-07-20T04:45:24;6.95;;;4.30;;
53389;SDS011;39288;42.970;1.524;2023-07-20T04:46:24;12.87;;;5.23;;
53389;SDS011;39288;42.970;1.524;2023-07-20T04:47:25;12.60;;;4.87;;
53389;SDS011;39288;42.970;1.524;2023-07-20T04:48:25;7.50;;;4.77;;
53389;SDS011;39288;42.970;1.524;2023-07-20T04:49:26;8.27;;;5.10;;
53389;SDS011;39288;42.970;1.524;2023-07-20T04:50:26;9.20;;;5.13;;
53389;SDS011;39288;42.970;1.524;2023-07-20T04:51:27;9.47;;;5.10;;
53389;SDS011;39288;42.970;1.524;2023-07-20T04:52:30;8.13;;;5.43;;
53389;SDS011;39288;42.970;1.524;2023-07-20T04:53:30;11.10;;;4.97;;
53389;SDS011;39288;42.970;1.524;2023-07-20T04:54:31;8.80;;;5.23;;
53389;SDS011;39288;42.970;1.524;2023-07-20T04:55:31;10.17;;;4.73;;
53389;SDS011;39288;42.970;1.524;2023-07-20T04:56:33;5.95;;;4.68;;
53389;SDS011;39288;42.970;1.524;2023-07-20T04:57:34;7.53;;;4.93;;
53389;SDS011;39288;42.970;1.524;2023-07-20T04:58:34;8.63;;;5.10;;
53389;SDS011;39288;42.970;1.524;2023-07-20T04:59:35;8.13;;;5.33;;
53389;SDS011;39288;42.970;1.524;2023-07-20T05:00:37;8.87;;;4.77;;
53389;SDS011;39288;42.970;1.524;2023-07-20T05:01:38;8.23;;;5.15;;
53389;SDS011;39288;42.970;1.524;2023-07-20T05:02:39;6.68;;;4.75;;
53389;SDS011;39288;42.970;1.524;2023-07-20T05:03:39;7.83;;;4.73;;
53389;SDS011;39288;42.970;1.524;2023-07-20T05:04:40;8.47;;;5.20;;
53389;SDS011;39288;42.970;1.524;2023-07-20T05:05:40;8.70;;;5.43;;
53389;SDS011;39288;42.970;1.524;2023-07-20T05:06:41;9.17;;;5.13;;
53389;SDS011;39288;42.970;1.524;2023-07-20T05:07:41;7.90;;;5.33;;
53389;SDS011;39288;42.970;1.524;2023-07-20T05:08:42;9.23;;;4.37;;
53389;SDS011;39288;42.970;1.524;2023-07-20T05:09:42;7.70;;;4.73;;
53389;SDS011;39288;42.970;1.524;2023-07-20T05:10:43;5.05;;;4.53;;
53389;SDS011;39288;42.970;1.524;2023-07-20T05:11:44;7.50;;;3.87;;
53389;SDS011;39288;42.970;1.524;2023-07-20T05:12:45;7.55;;;3.88;;
53389;SDS011;39288;42.970;1.524;2023-07-20T05:13:46;5.83;;;3.90;;
53389;SDS011;39288;42.970;1.524;2023-07-20T05:14:46;7.23;;;3.57;;
53389;SDS011;39288;42.970;1.524;2023-07-20T05:15:47;5.83;;;4.13;;
53389;SDS011;39288;42.970;1.524;2023-07-20T05:16:51;8.32;;;4.38;;
53389;SDS011;39288;42.970;1.524;2023-07-20T05:17:52;7.70;;;4.30;;
53389;SDS011;39288;42.970;1.524;2023-07-20T05:18:52;6.00;;;3.97;;
53389;SDS011;39288;42.970;1.524;2023-07-20T05:19:52;7.47;;;3.90;;
53389;SDS011;39288;42.970;1.524;2023-07-20T05:20:56;11.67;;;5.07;;
53389;SDS011;39288;42.970;1.524;2023-07-20T05:21:56;10.32;;;4.93;;
53389;SDS011;39288;42.970;1.524;2023-07-20T05:22:56;7.67;;;5.07;;
53389;SDS011;39288;42.970;1.524;2023-07-20T05:23:57;8.10;;;4.70;;
53389;SDS011;39288;42.970;1.524;2023-07-20T05:24:57;8.93;;;4.57;;
53389;SDS011;39288;42.970;1.524;2023-07-20T05:25:58;6.77;;;3.93;;
53389;SDS011;39288;42.970;1.524;2023-07-20T05:26:59;5.97;;;4.10;;
53389;SDS011;39288;42.970;1.524;2023-07-20T05:27:59;6.83;;;4.37;;
53389;SDS011;39288;42.970;1.524;2023-07-20T05:29:00;7.23;;;4.53;;
53389;SDS011;39288;42.970;1.524;2023-07-20T05:30:00;5.83;;;4.13;;
53389;SDS011;39288;42.970;1.524;2023-07-20T05:31:04;9.80;;;4.10;;
53389;SDS011;39288;42.970;1.524;2023-07-20T05:32:04;9.43;;;4.72;;
53389;SDS011;39288;42.970;1.524;2023-07-20T05:33:06;5.97;;;3.90;;
53389;SDS011;39288;42.970;1.524;2023-07-20T05:34:07;11.37;;;4.47;;
53389;SDS011;39288;42.970;1.524;2023-07-20T05:35:07;9.23;;;4.53;;
53389;SDS011;39288;42.970;1.524;2023-07-20T05:36:08;12.90;;;4.13;;
53389;SDS011;39288;42.970;1.524;2023-07-20T05:37:09;7.17;;;4.07;;
53389;SDS011;39288;42.970;1.524;2023-07-20T05:38:10;7.47;;;4.77;;
53389;SDS011;39288;42.970;1.524;2023-07-20T05:39:10;7.13;;;4.50;;
53389;SDS011;39288;42.970;1.524;2023-07-20T05:40:11;7.73;;;4.30;;
53389;SDS011;39288;42.970;1.524;2023-07-20T05:41:12;7.18;;;4.60;;
53389;SDS011;39288;42.970;1.524;2023-07-20T05:42:12;6.57;;;4.83;;
53389;SDS011;39288;42.970;1.524;2023-07-20T05:43:13;7.10;;;4.97;;
53389;SDS011;39288;42.970;1.524;2023-07-20T05:44:14;8.20;;;4.68;;
53389;SDS011;39288;42.970;1.524;2023-07-20T05:45:14;7.00;;;4.60;;
53389;SDS011;39288;42.970;1.524;2023-07-20T05:46:15;9.00;;;4.43;;
53389;SDS011;39288;42.970;1.524;2023-07-20T05:47:15;10.23;;;5.07;;
53389;SDS011;39288;42.970;1.524;2023-07-20T05:48:16;6.67;;;4.30;;
53389;SDS011;39288;42.970;1.524;2023-07-20T05:49:16;7.77;;;4.73;;
53389;SDS011;39288;42.970;1.524;2023-07-20T05:50:17;9.27;;;5.00;;
53389;SDS011;39288;42.970;1.524;2023-07-20T05:51:18;8.87;;;4.50;;
53389;SDS011;39288;42.970;1.524;2023-07-20T05:52:19;7.50;;;5.60;;
53389;SDS011;39288;42.970;1.524;2023-07-20T05:53:19;6.63;;;4.93;;
53389;SDS011;39288;42.970;1.524;2023-07-20T05:54:20;9.27;;;5.07;;
53389;SDS011;39288;42.970;1.524;2023-07-20T05:55:20;9.20;;;4.83;;
53389;SDS011;39288;42.970;1.524;2023-07-20T05:56:21;7.50;;;4.87;;
53389;SDS011;39288;42.970;1.524;2023-07-20T05:57:21;8.90;;;4.53;;
53389;SDS011;39288;42.970;1.524;2023-07-20T05:58:22;6.33;;;4.50;;
53389;SDS011;39288;42.970;1.524;2023-07-20T05:59:24;11.10;;;5.20;;
53389;SDS011;39288;42.970;1.524;2023-07-20T06:00:24;10.60;;;5.90;;
53389;SDS011;39288;42.970;1.524;2023-07-20T06:02:28;7.25;;;5.07;;
53389;SDS011;39288;42.970;1.524;2023-07-20T06:03:28;5.90;;;4.07;;
53389;SDS011;39288;42.970;1.524;2023-07-20T06:04:29;9.17;;;5.33;;
53389;SDS011;39288;42.970;1.524;2023-07-20T06:05:30;9.20;;;5.07;;
53389;SDS011;39288;42.970;1.524;2023-07-20T06:06:30;8.53;;;5.43;;
53389;SDS011;39288;42.970;1.524;2023-07-20T06:07:31;11.77;;;5.93;;
53389;SDS011;39288;42.970;1.524;2023-07-20T06:08:31;10.10;;;5.13;;
53389;SDS011;39288;42.970;1.524;2023-07-20T06:09:32;6.03;;;5.07;;
53389;SDS011;39288;42.970;1.524;2023-07-20T06:10:33;10.05;;;5.18;;
53389;SDS011;39288;42.970;1.524;2023-07-20T06:11:34;6.33;;;4.87;;
53389;SDS011;39288;42.970;1.524;2023-07-20T06:12:34;7.33;;;4.90;;
53389;SDS011;39288;42.970;1.524;2023-07-20T06:13:35;6.17;;;4.73;;
53389;SDS011;39288;42.970;1.524;2023-07-20T06:14:35;9.00;;;5.10;;
53389;SDS011;39288;42.970;1.524;2023-07-20T06:15:36;9.77;;;5.40;;
53389;SDS011;39288;42.970;1.524;2023-07-20T06:16:38;7.07;;;4.97;;
53389;SDS011;39288;42.970;1.524;2023-07-20T06:17:38;9.97;;;6.23;;